LFLN/SYT METAR and TAF weather

Enter ICAO airport designator
Station Type Date Time Source
LFLN METAR 2019/05/26 23:00 UTC NOAA

LFLN 262300Z AUTO 29005KT CAVOK 16/11 Q1016


Station Type Date Time Source
LFLN Decoded METAR 2019/05/26 23:00 UTC NOAA

Saint-Yan, France (LFLN) 46-25N 004-01E 244M
May 26, 2019 - 07:00 PM EDT / 2019.05.26 2300 UTC
Wind: from the WNW (290 degrees) at 6 MPH (5 KT):0
Visibility: greater than 7 mile(s):0
Temperature: 60 F (16 C)
Dew Point: 51 F (11 C)
Relative Humidity: 72%
Pressure (altimeter): 30.00 in. Hg (1016 hPa)
ob: LFLN 262300Z AUTO 29005KT CAVOK 16/11 Q1016
cycle: 23

Station Type Date Time Source
LFLN TAF UTC NOAA

Error!

Example: see airport list